Températures et CO2 à Grandhan ces mois de septembre et octobre 2022. Des pics importants…

Partageons !

Que dire ?
Que tout va bien ?
Septembre a été un mois un peu plus pluvieux que la normale, mais sans plus: 96 l M2 à Grandhan
Octobre a été à nouveau un mois sec avec 40 l au M2
Du coup, les nappes de la commune ont du mal à remonter, mais ce pourrait-être un euphémisme. En fait elles descendent.
Malgré l’imposition d’un mélange d’eau discutable et calcaire pour une partie du territoire par la commune, la nappe de Bomal, la cressonnière, a atteint son niveau historiquement le plus bas le 03 novembre (77.01 m).
Celle de Tohogne n’est guère plus gaillarde mais descend plus lentement.
Les températures sont restées douces en septembre et octobre avec des hautes pressions dominantes.
Deux petites gelées début octobre, pour “cuire” les tomates et les poivrons de pleine terre et encore pas tous (les 07 et 09 octobre)
Le CO2 ?
Je dois avouer qu’il est très compliqué d’établir une rapport entre le tourisme et la quantité de CO2 dans l’air.
On sait que le tourisme est un gros producteur de GES.: la mobilité voiture, le type de logement, les GES alimentaires (resto etc) etc mais généralement l’augmentation du CO2 n’est pas significative lors des périodes de vacances.
Cette fois ! Si !
On constate des pics importants les 29-30-31 octobre, toute la palette de 618 le 29 octobre, 610 le 30 octobre, 581 le 31 octobre au lieu d’une normalité de 417…
30 % des chiffres sont supérieurs à 460 sur les 2 mois.

Le tourisme Durbuysien nous empoisonne-t-il ?

Voici les tableaux

Record Time Temp(℃) Humi(%RH) DP(℃) CO2(PPM)
1 09-01-22 09:17:47 21,1 63,8 32,9 531
2 09-01-22 11:17:47 25,2 49,3 24,1 393
3 09-01-22 13:17:47 26,7 38,7 16,2 392
4 09-01-22 15:17:47 28,3 36 14,8 393
5 09-01-22 17:17:47 27,7 38,4 16,5 397
6 09-01-22 19:17:47 24,9 43,3 18,9 394
7 09-01-22 21:17:47 22,1 52,1 24,2 432
8 09-01-22 23:17:47 19,9 61,5 30 491
9 09-02-22 01:17:47 18,1 65,5 31,5 456
10 09-02-22 03:17:47 15,5 72,3 34,1 503
11 09-02-22 05:17:47 13,9 75 34,2 477
12 09-02-22 07:17:47 12,7 77,3 34,3 478
13 09-02-22 09:17:47 17,1 75 38 432
14 09-02-22 11:17:47 25,3 39,8 16,2 386
15 09-02-22 13:17:47 28,8 30,7 10,5 389
16 09-02-22 15:17:47 29,8 29,5 10 390
17 09-02-22 17:17:47 31,3 26,9 8,5 393
18 09-02-22 19:17:47 27,6 31,9 10,9 394
19 09-02-22 21:17:47 23,3 40,3 15,4 399
20 09-02-22 23:17:47 21,2 43,5 16,5 391
21 09-03-22 01:17:47 20,3 45,5 17,5 393
22 09-03-22 03:17:47 19,4 51,7 21,7 427
23 09-03-22 05:17:47 18,7 57,3 25,6 434
24 09-03-22 07:17:47 19,2 51,6 21,5 398
25 09-03-22 09:17:47 19,3 53,3 22,9 393
26 09-03-22 11:17:47 22,4 58,1 29,3 393
27 09-03-22 13:17:47 23,5 62,2 33,5 386
28 09-03-22 15:17:47 26,8 51 26,6 391
29 09-03-22 17:17:47 27,7 52,5 28,4 392
30 09-03-22 19:17:47 23,6 68 38,3 399
31 09-03-22 21:17:47 21,4 74,9 42,1 401
32 09-03-22 23:17:47 19,2 79,7 43,8 418
33 09-04-22 01:17:47 17,2 80,9 42,6 461
34 09-04-22 03:17:47 15,6 82,7 42,2 499
35 09-04-22 05:17:47 14,2 82,9 40,5 521
36 09-04-22 07:17:47 13,5 83,3 39,9 521
37 09-04-22 09:17:47 13,5 83,2 39,8 521
38 09-04-22 11:17:47 16,5 82,6 43,2 493
39 09-04-22 13:17:47 22,8 70,1 39,4 420
40 09-04-22 15:17:47 27,8 47,9 24,6 396
41 09-04-22 17:17:47 31,2 36,5 16,7 395
42 09-04-22 19:17:47 29,8 35,6 15,2 398
43 09-04-22 21:17:47 28,6 37,9 16,6 400
44 09-04-22 23:17:47 24,6 47,1 21,9 440
45 09-05-22 01:17:47 20,4 59 28,5 429
46 09-05-22 03:17:47 16,8 69,2 33,1 470
47 09-05-22 05:17:47 15,1 73,2 34,3 451
48 09-05-22 07:17:47 13,7 75,5 34,3 474
49 09-05-22 09:17:47 12,7 78,9 35,5 468
50 09-05-22 11:17:47 17 76,9 39,3 456
51 09-05-22 13:17:47 25,2 51,3 25,8 403
52 09-05-22 15:17:47 27,3 45,7 22,4 397
53 09-05-22 17:17:47 27,2 45,9 22,5 395
54 09-05-22 19:17:47 28,6 42,9 20,8 398
55 09-05-22 21:17:47 29,5 39,4 18,3 405
56 09-05-22 23:17:47 25,1 50,5 25 431
57 09-06-22 01:17:47 22,1 60,6 31,1 479
58 09-06-22 03:17:47 20,4 76,6 42,5 409
59 09-06-22 05:17:47 18,6 77,9 41,8 427
60 09-06-22 07:17:47 16,5 82 42,7 468
61 09-06-22 09:17:47 15,7 80,9 40,9 470
62 09-06-22 11:17:47 18,9 79,9 43,7 444
63 09-06-22 13:17:47 24,6 66,8 38,1 406
64 09-06-22 15:17:47 29,8 43,7 22,2 396
65 09-06-22 17:17:47 34,7 30,9 13,5 397
66 09-06-22 19:17:47 36,8 26,9 10,9 401
67 09-06-22 21:17:47 30,8 32,6 13,2 395
68 09-06-22 23:17:47 26,9 45,2 21,8 457
69 09-07-22 01:17:47 24,1 54,2 27,4 428
70 09-07-22 03:17:47 18,8 82,1 45,3 406
71 09-07-22 05:17:47 17,5 82,7 44,4 438
72 09-07-22 07:17:47 16,5 84,2 44,4 476
73 09-07-22 09:17:47 16,4 87 46,4 476
74 09-07-22 11:17:47 17,4 88,7 48,9 447
75 09-07-22 13:17:47 20,4 79,3 44,7 400
76 09-07-22 15:17:47 23,2 66,6 36,9 392
77 09-07-22 17:17:47 24,4 52,4 26,1 389
78 09-07-22 19:17:47 25 50,6 25 389
79 09-07-22 21:17:47 25,6 49,6 24,6 390
80 09-07-22 23:17:47 22,1 60,4 31 460
81 09-08-22 01:17:47 19,1 68,9 35,2 460
82 09-08-22 03:17:47 18,2 75,1 39,2 491
83 09-08-22 05:17:47 18,2 77 40,7 493
84 09-08-22 07:17:47 17,4 81 42,9 404
85 09-08-22 09:17:47 16,7 84,6 44,9 401
86 09-08-22 11:17:47 16,4 86,3 45,9 409
87 09-08-22 13:17:47 17,1 85 45,7 399
88 09-08-22 15:17:47 18,8 73 38,1 393
89 09-08-22 17:17:47 20,8 61,7 31 392
90 09-08-22 19:17:47 22 65,5 35 392
91 09-08-22 21:17:47 20,6 64,4 33 394
92 09-08-22 23:17:47 19 74 39,1 399
93 09-09-22 01:17:47 16 85,7 44,9 396
94 09-09-22 03:17:47 15,3 86,8 44,9 410
95 09-09-22 05:17:47 13,6 85,7 41,8 497
96 09-09-22 07:17:47 13,5 86 41,9 464
97 09-09-22 09:17:47 14,3 90,4 46,3 412
98 09-09-22 11:17:47 15 88,2 45,6 398
99 09-09-22 13:17:47 16,5 82,2 42,8 396
100 09-09-22 15:17:47 15,9 89 47,3 396
101 09-09-22 17:17:47 17,7 80,9 43,2 394
102 09-09-22 19:17:47 19,5 77,2 42,1 396
103 09-09-22 21:17:47 18,4 75,4 39,6 397
104 09-09-22 23:17:47 16,6 84,4 44,7 401
105 09-10-22 01:17:47 15,7 86,2 44,9 403
106 09-10-22 03:17:47 14,4 91,1 47 404
107 09-10-22 05:17:47 14,5 91,4 47,3 405
108 09-10-22 07:17:47 14,9 91,2 47,7 411
109 09-10-22 09:17:47 15 92 48,4 412
110 09-10-22 11:17:47 15,2 91,7 48,5 408
111 09-10-22 13:17:47 16,4 89,9 48,6 406
112 09-10-22 15:17:47 18,8 80,5 44 403
113 09-10-22 17:17:47 19,9 70,9 37,5 402
114 09-10-22 19:17:47 22,5 62,5 33 402
115 09-10-22 21:17:47 20,7 74,5 41,1 407
116 09-10-22 23:17:47 18,8 75,5 40,1 417
117 09-11-22 01:17:47 17,7 79,9 42,4 432
118 09-11-22 03:17:47 17,3 82,6 44,1 440
119 09-11-22 05:17:47 16,8 85,6 45,8 447
120 09-11-22 07:17:47 16,3 86,7 46,1 450
121 09-11-22 09:17:47 15,2 88,1 45,8 480
122 09-11-22 11:17:47 15,7 88,1 46,4 497
123 09-11-22 13:17:47 18,2 85,6 47,4 433
124 09-11-22 15:17:47 21,1 73,2 40,5 414
125 09-11-22 17:17:47 24,6 56,9 30 412
126 09-11-22 19:17:47 25,9 54,7 29,1 412
127 09-11-22 21:17:47 24 54,8 27,8 414
128 09-11-22 23:17:47 20 65,3 33,2 463
129 09-12-22 01:17:47 16,6 74,4 36,9 479
130 09-12-22 03:17:47 14 79,9 38 534
131 09-12-22 05:17:47 12,3 81,7 37 578
132 09-12-22 07:17:47 11,1 82 35,3 577
133 09-12-22 09:17:47 10,2 83,3 34,7 555
134 09-12-22 11:17:47 11,4 86,5 39,1 547
135 09-12-22 13:17:47 19,9 73,4 39,5 429
136 09-12-22 15:17:47 26 58,3 32,1 413
137 09-12-22 17:17:47 29,3 41,4 19,9 407
138 09-12-22 19:17:47 31,7 34,9 15,6 411
139 09-12-22 21:17:47 28,8 36,9 15,8 408
140 09-12-22 23:17:47 23,4 51,5 24,7 431
141 09-13-22 01:17:47 19,6 62,4 30,5 479
142 09-13-22 03:17:47 17,1 69,8 33,9 517
143 09-13-22 05:17:47 15,7 75,4 36,7 505
144 09-13-22 07:17:47 14,9 80,9 39,9 560
145 09-13-22 09:17:47 15,7 79,8 40,1 540
146 09-13-22 11:17:47 16 82,5 42,5 536
147 09-13-22 13:17:47 17,8 81,3 43,6 497
148 09-13-22 15:17:47 19,8 81,8 46,1 459
149 09-13-22 17:17:47 22,4 78,5 45,9 429
150 09-13-22 19:17:47 23,3 74,3 43,2 427
151 09-13-22 21:17:47 23,1 77,6 45,7 435
152 09-13-22 23:17:47 21,1 83,8 48,9 452
153 09-14-22 01:17:47 20 85 48,8 458
154 09-14-22 03:17:47 19,6 85,1 48,5 453
155 09-14-22 05:17:47 19,2 86,5 49,1 463
156 09-14-22 07:17:47 18,9 87,5 49,6 452
157 09-14-22 09:17:47 18,8 87,5 49,5 498
158 09-14-22 11:17:47 18,8 88,5 50,3 468
159 09-14-22 13:17:47 19,7 88,5 51,2 446
160 09-14-22 15:17:47 20,8 86,5 50,8 432
161 09-14-22 17:17:47 23 85 51,6 434
162 09-14-22 19:17:47 20,7 86,9 51 427
163 09-14-22 21:17:47 20,4 85,6 49,7 440
164 09-14-22 23:17:47 19,6 85,9 49,1 446
165 09-15-22 01:17:47 17 86,2 46,5 442
166 09-15-22 03:17:47 16 86,5 45,5 436
167 09-15-22 05:17:47 15,4 87,4 45,5 429
168 09-15-22 07:17:47 15,3 87,7 45,6 434
169 09-15-22 09:17:47 14,4 87,5 44,3 432
170 09-15-22 11:17:47 13,6 89,3 44,5 435
171 09-15-22 13:17:47 16 87,8 46,5 420
172 09-15-22 15:17:47 18,7 77,1 41,3 407
173 09-15-22 17:17:47 19,5 72,1 38,1 413
174 09-15-22 19:17:47 19,3 71,8 37,7 415
175 09-15-22 21:17:47 18 73,5 37,7 416
176 09-15-22 23:17:47 16,7 74,8 37,4 417
177 09-16-22 01:17:47 15,6 78 38,6 429
178 09-16-22 03:17:47 14,7 81,2 39,9 445
179 09-16-22 05:17:47 14,1 83,8 41,1 455
180 09-16-22 07:17:47 13,9 80,9 38,6 417
181 09-16-22 09:17:47 13 82,4 38,5 440
182 09-16-22 11:17:47 12,7 82,8 38,4 418
183 09-16-22 13:17:47 14,6 77,8 37,2 405
184 09-16-22 15:17:47 16,3 72,8 35,4 398
185 09-16-22 17:17:47 16,7 68,7 32,6 399
186 09-16-22 19:17:47 14 80,3 38,3 399
187 09-16-22 21:17:47 13,7 73,7 32,9 398
188 09-16-22 23:17:47 12,5 79,8 35,8 410
189 09-17-22 01:17:47 11,2 78,6 33 406
190 09-17-22 03:17:47 10,1 82,2 33,8 405
191 09-17-22 05:17:47 9,4 85,3 34,7 411
192 09-17-22 07:17:47 10,2 86,5 37 406
193 09-17-22 09:17:47 10,7 87,7 38,8 407
194 09-17-22 11:17:47 10,3 89,1 39,1 402
195 09-17-22 13:17:47 12,5 84 39 401
196 09-17-22 15:17:47 15,1 75,4 36 397
197 09-17-22 17:17:47 14,1 79 37,5 398
198 09-17-22 19:17:47 14,5 80,3 39 399
199 09-17-22 21:17:47 12,7 83,2 38,7 403
200 09-17-22 23:17:47 11,4 83,9 37,2 405
201 09-18-22 01:17:47 11,3 88 40 403
202 09-18-22 03:17:47 11,1 88,8 40,2 406
203 09-18-22 05:17:47 11,1 88,6 40,1 407
204 09-18-22 07:17:47 10,6 88,7 39,3 413
205 09-18-22 09:17:47 9,7 86,7 36,2 426
206 09-18-22 11:17:47 9,2 88,7 36,7 420
207 09-18-22 13:17:47 12,9 81 37,3 399
208 09-18-22 15:17:47 15,5 63,4 27,2 398
209 09-18-22 17:17:47 16,3 63,9 28,5 399
210 09-18-22 19:17:47 14,9 66,7 29,1 401
211 09-18-22 21:17:47 14,2 69,5 30,4 400
212 09-18-22 23:17:47 13,3 80,4 37,4 410
213 09-19-22 01:17:47 12,1 83,4 37,9 405
214 09-19-22 03:17:47 11,2 83,4 36,5 412
215 09-19-22 05:17:47 10,2 86,3 36,9 413
216 09-19-22 07:17:47 9,2 86,6 35,2 418
217 09-19-22 09:17:47 8,3 89,5 35,4 434
218 09-19-22 11:17:47 9,3 90,3 38 432
219 09-19-22 13:17:47 14,6 85,3 42,9 416
220 09-19-22 15:17:47 17,4 71,5 35,5 402
221 09-19-22 17:17:47 16,1 73,1 35,4 407
222 09-19-22 19:17:47 17,8 63,6 29,8 407
223 09-19-22 21:17:47 17,6 60,7 27,3 404
224 09-19-22 23:17:47 14,2 67,4 28,8 413
225 09-20-22 01:17:47 12,5 76,7 33,5 442
226 09-20-22 03:17:47 12,5 78,5 34,9 446
227 09-20-22 05:17:47 12 81,6 36,4 452
228 09-20-22 07:17:47 10,8 83 35,5 465
229 09-20-22 09:17:47 10 84,9 35,5 521
230 09-20-22 11:17:47 10 86,1 36,4 475
231 09-20-22 13:17:47 13,3 85,7 41,4 430
232 09-20-22 15:17:47 15,3 77,3 37,7 403
233 09-20-22 17:17:47 17,2 68,6 33,1 402
234 09-20-22 19:17:47 19,1 58 26,5 405
235 09-20-22 21:17:47 16 66,3 30 412
236 09-20-22 23:17:47 13,7 74,7 33,7 449
237 09-21-22 01:17:47 11,1 80,3 34,1 484
238 09-21-22 03:17:47 9 81,8 31,4 480
239 09-21-22 05:17:47 7,5 85,3 30,7 510
240 09-21-22 07:17:47 6,4 86,2 28,5 500
241 09-21-22 09:17:47 6,7 87,3 30,1 487
242 09-21-22 11:17:47 6,4 87,3 29,3 473
243 09-21-22 13:17:47 8,6 89,8 36,2 456
244 09-21-22 15:17:47 16,7 69 32,9 411
245 09-21-22 17:17:47 19,3 55,1 24,4 407
246 09-21-22 19:17:47 20,5 52,7 23,5 410
247 09-21-22 21:17:47 18 57,3 25 410
248 09-21-22 23:17:47 14 67,4 28,5 472
249 09-22-22 01:17:47 10,3 77,1 30,4 519
250 09-22-22 03:17:47 8,2 79,7 28,3 494
251 09-22-22 05:17:47 6,6 81,6 25,9 496
252 09-22-22 07:17:47 5,1 83 22,6 541
253 09-22-22 09:17:47 3,7 84,5 18,3 517
254 09-22-22 11:17:47 3,9 88,3 21,6 534
255 09-22-22 13:17:47 10,9 81 34,3 451
256 09-22-22 15:17:47 19,5 49,9 20,4 407
257 09-22-22 17:17:47 23,4 37,2 12,9 406
258 09-22-22 19:17:47 23,5 36,6 12,4 408
259 09-22-22 21:17:47 20,8 41,4 14,5 412
260 09-22-22 23:17:47 14,9 57,9 22,3 434
261 09-23-22 01:17:47 11,1 71,2 27,4 502
262 09-23-22 03:17:47 9 77,1 28,1 538
263 09-23-22 05:17:47 7,8 78,7 26,8 511
264 09-23-22 07:17:47 6,4 81,4 25,3 511
265 09-23-22 09:17:47 5,4 82,2 23 553
266 09-23-22 11:17:47 6,6 84,6 28 511
267 09-23-22 13:17:47 11,7 77,7 33,1 452
268 09-23-22 15:17:47 17,6 58,7 25,7 414
269 09-23-22 17:17:47 19 52,5 22 400
270 09-23-22 19:17:47 18,9 57,4 25,9 399
271 09-23-22 21:17:47 18 63 29,5 409
272 09-23-22 23:17:47 15,2 71,4 33 458
273 09-24-22 01:17:47 13,6 77 35,3 550
274 09-24-22 03:17:47 12,4 78,7 34,9 531
275 09-24-22 05:17:47 11,8 81,7 36,2 552
276 09-24-22 07:17:47 11,2 83,7 36,7 580
277 09-24-22 09:17:47 11,2 84,1 37 596
278 09-24-22 11:17:47 11,2 85,9 38,3 559
279 09-24-22 13:17:47 12,7 85,3 40,2 482
280 09-24-22 15:17:47 17 74,1 37,1 409
281 09-24-22 17:17:47 18,8 65,4 32,1 402
282 09-24-22 19:17:47 18 68,5 33,8 403
283 09-24-22 21:17:47 16,8 67,5 31,8 408
284 09-24-22 23:17:47 14,6 78 37,3 435
285 09-25-22 01:17:47 14,3 81,3 39,5 419
286 09-25-22 03:17:47 14 83,5 40,7 414
287 09-25-22 05:17:47 13,6 84,2 40,7 419
288 09-25-22 07:17:47 13,4 85,3 41,2 410
289 09-25-22 09:17:47 12,8 86,4 41,2 414
290 09-25-22 11:17:47 12,4 86,2 40,4 414
291 09-25-22 13:17:47 14 84,1 41,2 403
292 09-25-22 15:17:47 16,4 70,6 33,8 402
293 09-25-22 17:17:47 18,1 59,6 26,9 400
294 09-25-22 19:17:47 22 51,5 23,7 402
295 09-25-22 21:17:47 18,5 54,5 23,2 413
296 09-25-22 23:17:47 14,3 67,7 29,1 433
297 09-26-22 01:17:47 12,8 72,3 30,7 434
298 09-26-22 03:17:47 10,5 77,2 30,8 453
299 09-26-22 05:17:47 10,1 81,3 33,1 454
300 09-26-22 07:17:47 10,6 86,4 37,7 415
301 09-26-22 09:17:47 10 85,3 35,8 422
302 09-26-22 11:17:47 10,3 84,9 36 405
303 09-26-22 13:17:47 10,9 84,4 36,7 403
304 09-26-22 15:17:47 12,9 75,6 33,3 394
305 09-26-22 17:17:47 12,4 84,7 39,3 391
306 09-26-22 19:17:47 12 87,5 40,8 391
307 09-26-22 21:17:47 11,2 91 42 396
308 09-26-22 23:17:47 11,2 91,1 42,1 398
309 09-27-22 01:17:47 11 90,2 41,1 402
310 09-27-22 03:17:47 10,6 91,1 41 399
311 09-27-22 05:17:47 10 90 39,2 400
312 09-27-22 07:17:47 9,6 90,1 38,5 398
313 09-27-22 09:17:47 9,2 89,2 37 398
314 09-27-22 11:17:47 8,9 91,5 38,1 399
315 09-27-22 13:17:47 9,6 90,4 38,7 396
316 09-27-22 15:17:47 11,3 83,9 37 392
317 09-27-22 17:17:47 11,9 80,1 35,2 391
318 09-27-22 19:17:47 15,6 65,9 29,3 391
319 09-27-22 21:17:47 14,5 60,5 23,9 394
320 09-27-22 23:17:47 10,9 77 31,3 400
321 09-28-22 01:17:47 10,4 86,5 37,4 398
322 09-28-22 03:17:47 10,5 87 37,9 403
323 09-28-22 05:17:47 9,1 86,1 34,7 398
324 09-28-22 07:17:47 9,2 87,4 35,8 418
325 09-28-22 09:17:47 9,1 86,9 35,2 410
326 09-28-22 11:17:47 8 88,4 33,9 415
327 09-28-22 13:17:47 11,5 84,9 38,1 397
328 09-28-22 15:17:47 14,4 70,6 31,5 394
329 09-28-22 17:17:47 13,8 70,1 30,3 393
330 09-28-22 19:17:47 13,2 71 30,2 399
331 09-28-22 21:17:47 13,1 75,9 33,8 396
332 09-28-22 23:17:47 11,1 80,5 34,2 429
333 09-29-22 01:17:47 8,4 83,4 31,3 477
334 09-29-22 03:17:47 6,4 83,7 26,8 478
335 09-29-22 05:17:47 4,2 85,2 20,8 494
336 09-29-22 07:17:47 3,4 87,5 18,9 479
337 09-29-22 09:17:47 3,1 86,7 16,9 506
338 09-29-22 11:17:47 2,6 89,2 15,6 493
339 09-29-22 13:17:47 5,9 89,8 29,5 468
340 09-29-22 15:17:47 14,6 75,5 35,4 411
341 09-29-22 17:17:47 17,8 55,9 23,7 396
342 09-29-22 19:17:47 19,7 45,9 17,3 399
343 09-29-22 21:17:47 16,3 53,1 20 402
344 09-29-22 23:17:47 11,1 68,6 25,5 454
345 09-30-22 01:17:47 7,9 76,4 25,4 479
346 09-30-22 03:17:47 5,8 79,3 22,2 508
347 09-30-22 05:17:47 4,1 82,9 18,9 510
348 09-30-22 07:17:47 3,4 84,8 17,2 481
349 09-30-22 09:17:47 2,9 85,1 14,9 463
350 09-30-22 11:17:47 3,8 86,3 19,9 456
351 09-30-22 13:17:47 6 86,5 27,6 447
352 09-30-22 15:17:47 15,2 74,1 35,1 423
353 09-30-22 17:17:47 20,6 49,9 21,3 402
354 09-30-22 19:17:47 18,8 52 21,5 402
355 09-30-22 21:17:47 17,3 53,4 21,2 403
356 09-30-22 23:17:47 13,2 66,6 26,9 415
357 10-01-22 01:17:47 11,9 75,1 31,5 413
358 10-01-22 03:17:47 12,7 71,4 29,9 404
359 10-01-22 05:17:47 11 87,1 38,8 406
360 10-01-22 07:17:47 10,8 92,2 42,2 403
361 10-01-22 09:17:47 11,3 92 42,9 406
362 10-01-22 11:17:47 11,7 92,7 44,1 408
363 10-01-22 13:17:47 13,4 93,9 47,6 408
364 10-01-22 15:17:47 16,7 83,3 43,9 404
365 10-01-22 17:17:47 19,6 69,9 36,5 407
366 10-01-22 19:17:47 20,7 66 34,3 405
367 10-01-22 21:17:47 16,9 77,5 39,7 411
368 10-01-22 23:17:47 15,5 79,1 39,3 413
369 10-02-22 01:17:47 14,7 82,4 40,8 420
370 10-02-22 03:17:47 14,1 85,2 42,1 415
371 10-02-22 05:17:47 14,5 84,9 42,4 414
372 10-02-22 07:17:47 14,3 87,8 44,3 417
373 10-02-22 09:17:47 13,7 90,5 45,5 418
374 10-02-22 11:17:47 13,5 91,4 45,9 423
375 10-02-22 13:17:47 13,9 91,9 46,9 421
376 10-02-22 15:17:47 14,4 89,9 46,1 410
377 10-02-22 17:17:47 14,6 89,4 46 421
378 10-02-22 19:17:47 14,6 88 44,9 413
379 10-02-22 21:17:47 14,9 87,7 45,1 421
380 10-02-22 23:17:47 12,7 86,8 41,3 501
381 10-03-22 01:17:47 12 89,8 42,5 447
382 10-03-22 03:17:47 10,3 87,9 38,2 498
383 10-03-22 05:17:47 9,6 89,5 38 501
384 10-03-22 07:17:47 9,4 91,2 38,9 452
385 10-03-22 09:17:47 9,3 90,8 38,4 458
386 10-03-22 11:17:47 9,7 91,6 39,7 454
387 10-03-22 13:17:47 10,9 92,2 42,4 434
388 10-03-22 15:17:47 13,1 91 45 422
389 10-03-22 17:17:47 18,7 76,7 41 415
390 10-03-22 19:17:47 19,3 64,9 32,2 414
391 10-03-22 21:17:47 16,6 75 37,4 429
392 10-03-22 23:17:47 13 80,2 36,9 465
393 10-04-22 01:17:47 10,4 83,3 35,1 487
394 10-04-22 03:17:47 9,1 85 33,9 501
395 10-04-22 05:17:47 7,4 87,1 31,7 525
396 10-04-22 07:17:47 6,9 87 30,4 518
397 10-04-22 09:17:47 5,6 87,2 26,9 577
398 10-04-22 11:17:47 5,3 88 26,5 531
399 10-04-22 13:17:47 9,8 90,3 39 474
400 10-04-22 15:17:47 18,2 72,4 37,1 428
401 10-04-22 17:17:47 23 53,6 26,1 419
402 10-04-22 19:17:47 24,3 49,4 23,6 423
403 10-04-22 21:17:47 20,8 56,4 26,7 422
404 10-04-22 23:17:47 15,1 70,6 32,3 468
405 10-05-22 01:17:47 12,1 77,3 33,4 485
406 10-05-22 03:17:47 10,1 80,1 32,2 509
407 10-05-22 05:17:47 8,8 81,4 30,7 489
408 10-05-22 07:17:47 8,9 86,8 34,8 546
409 10-05-22 09:17:47 10,5 86,8 37,8 491
410 10-05-22 11:17:47 13 88,1 42,7 436
411 10-05-22 13:17:47 15,4 80,1 39,9 421
412 10-05-22 15:17:47 17,5 75,5 38,8 420
413 10-05-22 17:17:47 21,6 63,1 32,8 417
414 10-05-22 19:17:47 23,7 56,1 28,7 425
415 10-05-22 21:17:47 19,6 66,2 33,5 424
416 10-05-22 23:17:47 18,2 68,4 33,9 426
417 10-06-22 01:17:47 18,1 73,8 38,1 423
418 10-06-22 03:17:47 15,1 84,2 42,7 422
419 10-06-22 05:17:47 15 83,5 42 427
420 10-06-22 07:17:47 13 80,7 37,2 431
421 10-06-22 09:17:47 10,6 81,7 34,3 476
422 10-06-22 11:17:47 9 83,9 32,9 503
423 10-06-22 13:17:47 13,3 83,2 39,5 430
424 10-06-22 15:17:47 18,6 62,4 29,6 424
425 10-06-22 17:17:47 21,7 44,7 17,9 418
426 10-06-22 19:17:47 23,2 43,4 17,9 422
427 10-06-22 21:17:47 19,5 52,8 22,7 430
428 10-06-22 23:17:47 12,5 69,2 27,9 481
429 10-07-22 01:17:47 9,5 75,6 27,9 545
430 10-07-22 03:17:47 7,3 79 25,8 564
431 10-07-22 05:17:47 5,5 80,6 22,2 555
432 10-07-22 07:17:47 4 82,3 18,2 569
433 10-07-22 09:17:47 3 82,7 13,9 560
434 10-07-22 11:17:47 2,8 85,2 14,4 548
435 10-07-22 13:17:47 2,8 85,2 14,4 548
436 10-07-22 15:17:47 8 85,1 31,7 480
437 10-07-22 17:17:47 17,2 66,9 31,7 427
438 10-07-22 19:17:47 22,1 48,6 21,4 412
439 10-07-22 21:17:47 23,8 41,3 16,5 414
440 10-07-22 23:17:47 20,2 47,3 18,8 418
441 10-08-22 01:17:47 14,2 62,4 25 448
442 10-08-22 03:17:47 9,9 73,4 27 502
443 10-08-22 05:17:47 7,5 76,8 24,8 520
444 10-08-22 07:17:47 6,1 79,2 23 539
445 10-08-22 09:17:47 5,1 80,4 20,8 555
446 10-08-22 11:17:47 6,4 85,3 27,9 527
447 10-08-22 13:17:47 8,2 85 32 502
448 10-08-22 15:17:47 12,1 86,8 40,4 440
449 10-08-22 17:17:47 16,4 68,3 32 416
450 10-08-22 19:17:47 20,3 50,1 21,2 415
451 10-08-22 21:17:47 18,9 50,7 20,5 418
452 10-08-22 23:17:47 15,9 59,3 24,5 437
453 10-09-22 01:17:47 10,4 70,3 25,6 474
454 10-09-22 03:17:47 8,1 76,2 25,6 470
455 10-09-22 05:17:47 5,9 78,6 22 501
456 10-09-22 07:17:47 4,3 81,8 19 532
457 10-09-22 09:17:47 2,7 81,8 11,8 536
458 10-09-22 11:17:47 1,7 81,8 4,9 516
459 10-09-22 13:17:47 1,5 84,2 4,5 505
460 10-09-22 15:17:47 7,5 85,7 30,9 443
461 10-09-22 17:17:47 16,5 63,1 28,1 414
462 10-09-22 19:17:47 20,5 45,5 17,6 413
463 10-09-22 21:17:47 21 43,8 16,6 416
464 10-09-22 23:17:47 19,1 48,8 19,2 414
465 10-10-22 01:17:47 12,8 61,7 22,7 456
466 10-10-22 03:17:47 9,3 70,4 23,8 478
467 10-10-22 05:17:47 9,8 72 25,9 435
468 10-10-22 07:17:47 9,6 75,2 27,8 428
469 10-10-22 09:17:47 9,2 75 27 437
470 10-10-22 11:17:47 6,5 78,1 23,3 459
471 10-10-22 13:17:47 5 80,4 20,5 487
472 10-10-22 15:17:47 10,5 83,4 35,3 445
473 10-10-22 17:17:47 17,7 69,1 34 415
474 10-10-22 19:17:47 20,9 61,8 31,1 401
475 10-10-22 21:17:47 17,4 77,3 40,1 412
476 10-10-22 23:17:47 16,2 82,6 42,8 440
477 10-11-22 01:17:47 15,4 82,2 41,5 424
478 10-11-22 03:17:47 13,8 79,4 37,4 415
479 10-11-22 05:17:47 12,7 77,8 34,6 412
480 10-11-22 07:17:47 9,5 80,1 31,2 451
481 10-11-22 09:17:47 7,2 83,5 28,7 484
482 10-11-22 11:17:47 6,9 87,1 30,4 477
483 10-11-22 13:17:47 5,9 84,7 26,1 458
484 10-11-22 15:17:47 7,3 88,7 32,5 435
485 10-11-22 17:17:47 14,2 76,6 35,8 410
486 10-11-22 19:17:47 18 60,8 27,7 407
487 10-11-22 21:17:47 19,6 52,9 22,9 409
488 10-11-22 23:17:47 16,2 58 23,8 419
489 10-12-22 01:17:47 11,6 67,7 25,6 454
490 10-12-22 03:17:47 8 75,8 25,2 491
491 10-12-22 05:17:47 5,7 79,2 21,9 510
492 10-12-22 07:17:47 4 79,4 16,3 541
493 10-12-22 09:17:47 2,4 81,8 10 524
494 10-12-22 11:17:47 1,6 83,3 4,9 553
495 10-12-22 13:17:47 0,8 85,3 -3,5 532
496 10-12-22 15:17:47 6 85,7 27,1 441
497 10-12-22 17:17:47 14,4 72,5 32,9 422
498 10-12-22 19:17:47 18,4 54,5 23,1 405
499 10-12-22 21:17:47 22,3 48,4 21,3 407
500 10-12-22 23:17:47 18,3 60,3 27,6 421
501 10-13-22 01:17:47 13,9 71,8 31,8 456
502 10-13-22 03:17:47 11,3 76,4 31,5 532
503 10-13-22 05:17:47 9,4 79,7 30,7 555
504 10-13-22 07:17:47 8,6 83,4 31,7 546
505 10-13-22 09:17:47 8,6 84 32,2 506
506 10-13-22 11:17:47 8,5 84,6 32,4 511
507 10-13-22 13:17:47 8,6 84,7 32,7 539
508 10-13-22 15:17:47 10,5 84 35,8 549
509 10-13-22 17:17:47 15,3 82,8 41,9 433
510 10-13-22 19:17:47 16,7 71,6 34,9 408
511 10-13-22 21:17:47 16,1 77,1 38,5 415
512 10-13-22 23:17:47 14,9 75,1 35,5 410
513 10-14-22 01:17:47 14,6 78,6 37,8 424
514 10-14-22 03:17:47 14,3 85 42,2 427
515 10-14-22 05:17:47 14 86,6 43 468
516 10-14-22 07:17:47 14,1 86,5 43,1 466
517 10-14-22 09:17:47 14,2 86,6 43,3 456
518 10-14-22 11:17:47 14,3 86,2 43,1 450
519 10-14-22 13:17:47 14,5 86,6 43,7 428
520 10-14-22 15:17:47 15,4 87,6 45,6 425
521 10-14-22 17:17:47 16,5 86 45,8 423
522 10-14-22 19:17:47 17,4 84,2 45,4 424
523 10-14-22 21:17:47 18,1 75,3 39,2 412
524 10-14-22 23:17:47 17 78,6 40,6 421
525 10-15-22 01:17:47 15,6 79,7 39,9 421
526 10-15-22 03:17:47 15,1 85 43,3 424
527 10-15-22 05:17:47 15 85,5 43,5 440
528 10-15-22 07:17:47 14,8 86,7 44,2 445
529 10-15-22 09:17:47 14,5 88,9 45,4 436
530 10-15-22 11:17:47 14,1 90,7 46,2 424
531 10-15-22 13:17:47 14,4 89,4 45,7 428
532 10-15-22 15:17:47 15,8 88,3 46,7 418
533 10-15-22 17:17:47 17,8 85,8 47,1 409
534 10-15-22 19:17:47 20 87 50,4 404
535 10-15-22 21:17:47 18,2 82 44,6 411
536 10-15-22 23:17:47 17,5 82,1 43,9 411
537 10-16-22 01:17:47 16,4 82,7 43,1 423
538 10-16-22 03:17:47 14,7 84,3 42,2 490
539 10-16-22 05:17:47 13,6 85,8 41,9 503
540 10-16-22 07:17:47 13 86,5 41,5 476
541 10-16-22 09:17:47 13,4 87,2 42,6 461
542 10-16-22 11:17:47 13,8 87,7 43,6 449
543 10-16-22 13:17:47 12,7 87,4 41,8 483
544 10-16-22 15:17:47 14,4 90,2 46,3 426
545 10-16-22 17:17:47 19,9 67,7 35 410
546 10-16-22 19:17:47 21,3 62,7 32,2 410
547 10-16-22 21:17:47 20,1 68,8 36 412
548 10-16-22 23:17:47 19,2 75,6 40,6 419
549 10-17-22 01:17:47 17,3 79,7 41,8 473
550 10-17-22 03:17:47 16 82,5 42,5 463
551 10-17-22 05:17:47 15,8 85,2 44,3 471
552 10-17-22 07:17:47 15,6 84,6 43,6 469
553 10-17-22 09:17:47 14,7 84,9 42,7 479
554 10-17-22 11:17:47 15 86,8 44,5 446
555 10-17-22 13:17:47 15,9 86,5 45,4 423
556 10-17-22 15:17:47 17,8 84,5 46,1 419
557 10-17-22 17:17:47 20,4 76,9 42,8 412
558 10-17-22 19:17:47 20,7 74,3 41 411
559 10-17-22 21:17:47 20,4 78,1 43,7 417
560 10-17-22 23:17:47 19 85,2 47,9 444
561 10-18-22 01:17:47 18 86,4 47,8 435
562 10-18-22 03:17:47 17,1 87 47,2 489
563 10-18-22 05:17:47 16,5 88,1 47,4 551
564 10-18-22 07:17:47 16,3 88,6 47,5 554
565 10-18-22 09:17:47 16,3 88 47,1 564
566 10-18-22 11:17:47 15,9 89,6 47,8 594
567 10-18-22 13:17:47 16 89,3 47,7 574
568 10-18-22 15:17:47 17,1 89,4 49,1 457
569 10-18-22 17:17:47 19,4 86,9 49,7 432
570 10-18-22 19:17:47 20,6 78,6 44,3 415
571 10-18-22 21:17:47 21,5 74 41,5 414
572 10-18-22 23:17:47 19,2 74,9 40 437
573 10-19-22 01:17:47 15,8 81,1 41,2 493
574 10-19-22 03:17:47 14 82,2 39,7 463
575 10-19-22 05:17:47 12,1 84 38,4 524
576 10-19-22 07:17:47 11,1 85,9 38,1 507
577 10-19-22 09:17:47 9,8 86,1 36 568
578 10-19-22 11:17:47 9 86,8 35 521
579 10-19-22 13:17:47 8 87,8 33,5 529
580 10-19-22 15:17:47 11,4 92,9 43,7 451
581 10-19-22 17:17:47 17,1 82,8 44 419
582 10-19-22 19:17:47 20,1 74,5 40,6 400
583 10-19-22 21:17:47 20,9 68,8 36,8 412
584 10-19-22 23:17:47 17,8 73,8 37,8 443
585 10-20-22 01:17:47 15 78,3 38,1 455
586 10-20-22 03:17:47 14 80,4 38,4 442
587 10-20-22 05:17:47 14 83,3 40,6 421
588 10-20-22 07:17:47 14,1 83,9 41,1 417
589 10-20-22 09:17:47 14,4 83,6 41,3 417
590 10-20-22 11:17:47 14,1 83,9 41,1 419
591 10-20-22 13:17:47 14,2 84,1 41,4 421
592 10-20-22 15:17:47 15 85,1 43,2 423
593 10-20-22 17:17:47 15,5 87,1 45,4 424
594 10-20-22 19:17:47 20,2 76,9 42,6 409
595 10-20-22 21:17:47 23,7 61 32,7 412
596 10-20-22 23:17:47 19,9 74,4 40,3 421
597 10-21-22 01:17:47 18,2 80 43 421
598 10-21-22 03:17:47 18 82,7 44,9 418
599 10-21-22 05:17:47 16,7 87,3 47 437
600 10-21-22 07:17:47 15 85,7 43,7 446
601 10-21-22 09:17:47 14,3 87,8 44,3 419
602 10-21-22 11:17:47 14,9 88,9 46 413
603 10-21-22 13:17:47 15,3 91,1 48,2 412
604 10-21-22 15:17:47 14,9 90,4 47,1 409
605 10-21-22 17:17:47 17,1 87,3 47,5 406
606 10-21-22 19:17:47 19,1 78,2 42,5 406
607 10-21-22 21:17:47 20,9 67,8 36 404
608 10-21-22 23:17:47 18,3 75,9 39,9 406
609 10-22-22 01:17:47 15,7 80,7 40,8 525
610 10-22-22 03:17:47 14,3 84,1 41,6 470
611 10-22-22 05:17:47 13,5 85,1 41,2 528
612 10-22-22 07:17:47 13,3 85,9 41,5 538
613 10-22-22 09:17:47 11,7 85,3 38,7 533
614 10-22-22 11:17:47 10,3 86,1 36,9 593
615 10-22-22 13:17:47 10 87,9 37,7 543
616 10-22-22 15:17:47 14,2 90,1 45,9 415
617 10-22-22 17:17:47 16,6 79,8 41,1 407
618 10-22-22 19:17:47 20,1 70,3 37,2 406
619 10-22-22 21:17:47 21,1 61,8 31,3 405
620 10-22-22 23:17:47 18,4 70,1 35,5 439
621 10-23-22 01:17:47 14,8 77,7 37,4 493
622 10-23-22 03:17:47 13,4 81 38 467
623 10-23-22 05:17:47 12,8 82,6 38,4 478
624 10-23-22 07:17:47 12,9 87,5 42,1 446
625 10-23-22 09:17:47 13,8 86,3 42,5 445
626 10-23-22 11:17:47 14,4 85,6 42,8 422
627 10-23-22 13:17:47 14,6 84 41,9 420
628 10-23-22 15:17:47 16,2 81,6 42 419
629 10-23-22 17:17:47 17,9 78,3 41,4 414
630 10-23-22 19:17:47 20,3 73,9 40,3 407
631 10-23-22 21:17:47 20,2 76,2 42 413
632 10-23-22 23:17:47 18,7 81,1 44,4 421
633 10-24-22 01:17:47 16,5 79,6 40,8 426
634 10-24-22 03:17:47 17,6 75,6 39 407
635 10-24-22 05:17:47 17,4 73,4 37 405
636 10-24-22 07:17:47 18 67,1 32,7 404
637 10-24-22 09:17:47 17,2 68,7 33,2 405
638 10-24-22 11:17:47 16,5 70,4 33,7 404
639 10-24-22 13:17:47 16 73,6 35,7 403
640 10-24-22 15:17:47 16,6 72,5 35,5 402
641 10-24-22 17:17:47 17,3 71,2 35,2 399
642 10-24-22 19:17:47 18 70,7 35,5 399
643 10-24-22 21:17:47 18,6 69 34,8 400
644 10-24-22 23:17:47 16,4 80,7 41,6 403
645 10-25-22 01:17:47 14,9 83,3 41,7 413
646 10-25-22 03:17:47 14,4 83,7 41,4 407
647 10-25-22 05:17:47 14,8 84,2 42,3 405
648 10-25-22 07:17:47 14,6 83,9 41,8 408
649 10-25-22 09:17:47 14,6 84,5 42,3 410
650 10-25-22 11:17:47 13,9 86,3 42,7 415
651 10-25-22 13:17:47 14,1 86 42,7 418
652 10-25-22 15:17:47 14,6 83,4 41,4 409
653 10-25-22 17:17:47 15,3 78,8 38,8 405
654 10-25-22 19:17:47 17,4 71,5 35,5 401
655 10-25-22 21:17:47 18,2 66,5 32,4 403
656 10-25-22 23:17:47 16 70,4 33,2 450
657 10-26-22 01:17:47 12,9 78,4 35,4 447
658 10-26-22 03:17:47 13,3 81 37,9 424
659 10-26-22 05:17:47 14,2 80,3 38,6 416
660 10-26-22 07:17:47 14,5 81,9 40,2 412
661 10-26-22 09:17:47 14,9 81,9 40,7 410
662 10-26-22 11:17:47 15 81,3 40,3 412
663 10-26-22 13:17:47 14,2 81,9 39,8 428
664 10-26-22 15:17:47 14,6 84,3 42,1 430
665 10-26-22 17:17:47 20 71,8 38,3 412
666 10-26-22 19:17:47 23,3 58,8 30,6 409
667 10-26-22 21:17:47 23 59,7 31,1 409
668 10-26-22 23:17:47 20,7 64,9 33,5 419
669 10-27-22 01:17:47 16,3 75,1 37,1 468
670 10-27-22 03:17:47 14,5 78,7 37,7 471
671 10-27-22 05:17:47 12,8 79,7 36,2 575
672 10-27-22 07:17:47 12,7 82,6 38,2 459
673 10-27-22 09:17:47 11,6 83,4 37,1 498
674 10-27-22 11:17:47 10,9 82,9 35,6 501
675 10-27-22 13:17:47 12 86,5 40 428
676 10-27-22 15:17:47 16 82,4 42,4 412
677 10-27-22 17:17:47 20,5 72,6 39,4 412
678 10-27-22 19:17:47 22,6 66,3 36,2 413
679 10-27-22 21:17:47 21,9 69,4 38,1 417
680 10-27-22 23:17:47 21 71,4 38,9 422
681 10-28-22 01:17:47 18,9 75,5 40,2 461
682 10-28-22 03:17:47 17,8 79,6 42,3 448
683 10-28-22 05:17:47 18,3 78,3 41,8 428
684 10-28-22 07:17:47 18 77,3 40,7 439
685 10-28-22 09:17:47 17,1 79,1 41,1 439
686 10-28-22 11:17:47 16 79,6 40,3 466
687 10-28-22 13:17:47 14,7 82,6 41 462
688 10-28-22 15:17:47 17,7 80 42,5 430
689 10-28-22 17:17:47 22,3 69,2 38,3 412
690 10-28-22 19:17:47 25,5 51 25,7 416
691 10-28-22 21:17:47 24 58,5 30,9 416
692 10-28-22 23:17:47 21,5 63,4 32,9 435
693 10-29-22 01:17:47 18 72 36,6 500
694 10-29-22 03:17:47 17,2 76 38,8 474
695 10-29-22 05:17:47 15,7 78,9 39,4 526
696 10-29-22 07:17:47 15,1 80,3 39,7 534
697 10-29-22 09:17:47 14,1 82,7 40,2 618
698 10-29-22 11:17:47 14,8 84,3 42,4 477
699 10-29-22 13:17:47 16,3 81,3 41,9 433
700 10-29-22 15:17:47 17,3 78,8 41,1 433
701 10-29-22 17:17:47 20,2 72,9 39,4 416
702 10-29-22 19:17:47 21,7 66,2 35,3 416
703 10-29-22 21:17:47 22,1 63,8 33,7 420
704 10-29-22 23:17:47 20,2 65,4 33,4 423
705 10-30-22 01:17:47 18,5 69,3 34,9 428
706 10-30-22 02:17:47 16,6 72,4 35,4 501
707 10-30-22 04:17:47 15,9 73,9 35,8 477
708 10-30-22 06:17:47 14,2 76,4 35,6 574
709 10-30-22 08:17:47 12,4 80,2 36 547
710 10-30-22 10:17:47 11,4 82,1 35,9 544
711 10-30-22 12:17:47 10 83,1 34,2 563
712 10-30-22 14:17:47 12,2 88,1 41,5 502
713 10-30-22 16:17:47 18,7 70,2 35,8 422
714 10-30-22 18:17:47 23,7 43,5 18,3 412
715 10-30-22 20:17:47 24,3 46,3 21 414
716 10-30-22 22:17:47 19,5 60,1 28,6 456
717 10-31-22 00:17:47 16 68,6 31,8 468
718 10-31-22 02:17:47 13,9 74,9 34,1 491
719 10-31-22 04:17:47 12,8 81,1 37,2 578
720 10-31-22 06:17:47 12,2 82,1 37,1 541
721 10-31-22 08:17:47 11,2 83,4 36,5 610
722 10-31-22 10:17:47 10,9 84,4 36,7 581
723 10-31-22 12:17:47 10,8 85 37 563
724 10-31-22 14:17:47 11,8 87,5 40,5 514
725 10-31-22 16:17:47 16,3 78,8 40 418
726 10-31-22 18:17:47 19,9 64,7 32,6 409
727 10-31-22 20:17:47 21,8 58,2 29 411
728 10-31-22 22:17:47 18,7 63,7 30,7 422
729 11-01-22 00:17:47 16,6 69,2 32,9 425
730 11-01-22 02:17:47 16,3 72,2 34,9 420
731 11-01-22 04:17:47 17,2 75,8 38,7 406
732 11-01-22 06:17:47 17,3 78,4 40,8 402
733 11-01-22 08:17:47 17 79,6 41,4 404
734 11-01-22 10:17:47 16 75 36,7 406
735 11-01-22 12:17:47 12,8 72,6 30,9 406
736 11-01-22 14:17:47 13,1 73,1 31,7 403
737 11-01-22 16:17:47 14,8 66,5 28,8 402
738 11-01-22 18:17:47 17 60,4 26,4 402
739 11-01-22 20:17:47 16,8 60,1 26 401
740 11-01-22 22:17:47 14,8 65,8 28,3 403
741 11-02-22 00:17:47 13,9 69,6 30,1 402
742 11-02-22 02:17:47 13,4 71,6 31 403
743 11-02-22 04:17:47 13 76,2 33,9 406
744 11-02-22 06:17:47 13,2 75,4 33,5 404
745 11-02-22 08:17:47 12,9 76,4 33,9 404
746 11-02-22 10:17:47 11,7 79 34,1 409
747 11-02-22 12:17:47 10,8 80 33,4 408
748 11-02-22 14:17:47 11,7 79,1 34,1 406
749 11-02-22 16:17:47 14,7 68 29,8 402
750 11-02-22 18:17:47 17,5 54,9 22,6 405
751 11-02-22 20:17:47 16,4 50,8 18,3 406
752 11-02-22 22:17:47 13,6 61,2 23,3 409
753 11-03-22 00:17:47 11,6 68,1 25,9 419
754 11-03-22 02:17:47 11 73,1 28,6 413
755 11-03-22 04:17:47 10,9 75,1 29,9 415
756 11-03-22 06:17:47 10,4 77,9 31,2 416
757 11-03-22 08:17:47 11 80 33,7 411
758 11-03-22 10:17:47 11,6 80 34,6 410
759 11-03-22 12:17:47 11,7 80,3 35 408
760 11-03-22 14:17:47 12,3 78,1 34,3 405
761 11-03-22 16:17:47 13,5 75,1 33,7 400
762 11-03-22 18:17:47 15,2 69,1 31,3 396
763 11-03-22 20:17:47 13,5 77,4 35,5 406
764 11-03-22 22:17:47 13 81,3 37,7 398
765 11-04-22 00:17:47 12,2 85,4 39,5 401
766 11-04-22 02:17:47 11,6 87,9 40,4 401
767 11-04-22 04:17:47 10,8 86 37,7 399
768 11-04-22 06:17:47 9,6 85,4 35,1 405
769 11-04-22 08:17:47 9,4 86 35,2 402
770 11-04-22 10:17:47 9,8 85,1 35,3 400
771 11-04-22 12:17:47 10 85,8 36,2 408
772 11-04-22 14:17:47 10,8 86,4 38 402
773 11-04-22 16:17:47 12,2 86,1 40,1 401
774 11-04-22 18:17:47 12,7 81,3 37,3 398
775 11-04-22 20:17:47 12,3 82 37,2 401
776 11-04-22 22:17:47 11,7 83,8 37,6 414
777 11-05-22 00:17:47 10,5 85,4 36,8 419
778 11-05-22 02:17:47 9,9 85,4 35,7 419
779 11-05-22 04:17:47 8,1 84,8 31,7 425
780 11-05-22 06:17:47 6,6 87,5 29,9 433
781 11-05-22 08:17:47 6,2 87,5 28,8 439
782 11-05-22 10:17:47 6,5 91 32 418
783 11-05-22 12:17:47 6,6 90,4 31,9 416
784 11-05-22 14:17:47 6,8 90,2 32,3 422
785 11-05-22 16:17:47 10,1 85 35,8 413
786 11-05-22 18:17:47 12,1 74,7 31,5 410

Image entête: wikipedia common – ceci n’est pas une pipe ni un Magritte  😀


Partageons !
Author: Bernard Adam
Cuisinier à la retraite

Laisser un commentaire

Votre adresse de messagerie ne sera pas publiée. Les champs obligatoires sont indiqués avec *

91 − 82 =